Time;durP1;ratioP1;P1;durP2;ratioP2;P2;SDS_P1;SDS_P2;PMS_P1;PMS_P2;Temp;Humidity;BMP_temperature;BMP_pressure;BME280_temperature;BME280_humidity;BME280_pressure;Samples;Min_cycle;Max_cycle;Signal;HPM_P1;HPM_P2
2023/06/12 00:00:05;;;;;;;375.40;246.30;;;;;;;20.85;85.35;98931.34;296079;33;5048;-81
2023/06/12 00:00:16;;;;;;;376.15;245.50;;;;;;;20.84;85.23;98924.34;292236;33;5257;-81
2023/06/12 00:00:26;;;;;;;373.65;242.13;;;;;;;20.83;85.72;98921.81;297873;33;1311;-81
2023/06/12 00:00:37;;;;;;;374.65;241.63;;;;;;;20.83;85.53;98920.00;296153;33;4407;-81
2023/06/12 00:00:51;;;;;;;372.53;241.57;;;;;;;20.82;85.62;98923.66;296392;33;3614;-81
2023/06/12 00:01:02;;;;;;;369.77;245.27;;;;;;;20.83;85.40;98921.81;293804;33;3206;-81
2023/06/12 00:01:14;;;;;;;366.77;242.15;;;;;;;20.84;85.30;98929.66;293692;33;1484;-81
2023/06/12 00:01:24;;;;;;;368.27;239.70;;;;;;;20.84;85.40;98919.03;287330;34;1261;-81
2023/06/12 00:01:36;;;;;;;368.92;235.98;;;;;;;20.85;85.53;98925.19;287265;34;4124;-81
2023/06/12 00:01:46;;;;;;;369.50;239.63;;;;;;;20.84;85.11;98913.69;285323;34;5320;-81
2023/06/12 00:01:57;;;;;;;367.93;241.50;;;;;;;20.83;85.22;98916.50;285543;34;1194;-81
2023/06/12 00:02:07;;;;;;;367.10;242.43;;;;;;;20.82;85.61;98921.00;281598;34;5893;-81
2023/06/12 00:02:18;;;;;;;370.42;244.77;;;;;;;20.84;85.70;98924.34;278618;34;5822;-81
2023/06/12 00:02:31;;;;;;;369.75;242.75;;;;;;;20.82;85.71;98915.66;277365;35;1248;-81
2023/06/12 00:02:41;;;;;;;365.54;239.08;;;;;;;20.83;85.30;98916.50;280853;35;1487;-81
2023/06/12 00:02:52;;;;;;;360.87;239.80;;;;;;;20.82;85.61;98923.66;276745;35;6537;-81
2023/06/12 00:03:02;;;;;;;362.40;238.93;;;;;;;20.83;85.15;98925.31;274946;35;5275;-81
2023/06/12 00:03:13;;;;;;;366.93;239.03;;;;;;;20.79;85.33;98918.66;276412;35;876;-81
2023/06/12 00:03:25;;;;;;;372.50;236.13;;;;;;;20.80;85.35;98916.78;275261;35;4881;-81
2023/06/12 00:03:35;;;;;;;372.42;237.25;;;;;;;20.80;85.75;98912.31;273412;35;4342;-81
2023/06/12 00:03:47;;;;;;;370.38;239.02;;;;;;;20.81;85.59;98914.00;269800;35;7002;-81
2023/06/12 00:03:57;;;;;;;365.45;237.77;;;;;;;20.80;85.56;98922.94;268861;36;1370;-82
2023/06/12 00:04:08;;;;;;;369.20;239.73;;;;;;;20.81;85.40;98918.47;263696;36;7773;-81
2023/06/12 00:05:58;;;;;;;352.46;221.81;;;;;;;20.86;85.28;98919.72;2495794;27;20492;-82
2023/06/12 00:06:09;;;;;;;362.63;233.30;;;;;;;20.87;85.12;98918.75;351970;28;1459;-82
2023/06/12 00:06:21;;;;;;;363.48;235.13;;;;;;;20.85;85.18;98907.41;347401;28;1296;-82
2023/06/12 00:06:31;;;;;;;366.10;238.25;;;;;;;20.85;85.07;98915.38;344879;28;1348;-82
2023/06/12 00:06:42;;;;;;;367.65;239.50;;;;;;;20.86;85.18;98921.53;344713;28;1211;-82
2023/06/12 00:06:52;;;;;;;372.93;242.03;;;;;;;20.83;85.04;98909.38;347498;28;1480;-82
2023/06/12 00:07:03;;;;;;;373.40;240.53;;;;;;;20.84;84.94;98915.53;347566;28;1519;-82
2023/06/12 00:07:13;;;;;;;375.27;242.10;;;;;;;20.85;84.94;98912.72;344769;28;1088;-82
2023/06/12 00:07:25;;;;;;;376.83;243.47;;;;;;;20.86;85.18;98911.75;343457;28;1353;-82
2023/06/12 00:07:36;;;;;;;373.58;238.38;;;;;;;20.86;84.85;98911.75;345946;28;1492;-82
2023/06/12 00:07:47;;;;;;;369.17;234.73;;;;;;;20.85;84.81;98910.06;344672;28;1218;-82
2023/06/12 00:07:57;;;;;;;373.90;234.57;;;;;;;20.86;84.79;98913.56;346082;28;1462;-82
2023/06/12 00:08:08;;;;;;;377.08;235.35;;;;;;;20.83;85.04;98906.72;344603;28;1154;-82
2023/06/12 00:08:19;;;;;;;377.75;236.30;;;;;;;20.86;84.77;98911.75;344633;28;997;-82
2023/06/12 00:08:30;;;;;;;372.50;236.00;;;;;;;20.86;85.12;98906.41;346069;28;1266;-82
2023/06/12 00:08:41;;;;;;;372.58;238.07;;;;;;;20.85;84.83;98915.38;346190;28;1045;-82
2023/06/12 00:08:52;;;;;;;375.65;236.70;;;;;;;20.85;85.14;98912.72;348144;28;1262;-81
2023/06/12 00:09:04;;;;;;;378.43;237.17;;;;;;;20.84;84.62;98911.03;344678;28;1211;-81
2023/06/12 00:09:14;;;;;;;374.98;235.82;;;;;;;20.84;84.45;98908.38;348457;28;1330;-81
2023/06/12 00:09:24;;;;;;;375.67;239.77;;;;;;;20.85;85.13;98904.75;349747;28;1214;-81
2023/06/12 00:09:35;;;;;;;376.00;241.93;;;;;;;20.87;84.76;98918.75;348448;28;1320;-81
2023/06/12 00:09:45;;;;;;;377.63;243.17;;;;;;;20.86;84.61;98910.91;347163;28;1288;-81
2023/06/12 00:09:56;;;;;;;373.08;242.80;;;;;;;20.85;84.76;98907.41;346535;28;1337;-82
2023/06/12 00:10:06;;;;;;;369.63;241.77;;;;;;;20.84;84.76;98908.38;344784;28;1374;-83
2023/06/12 00:10:17;;;;;;;366.60;238.88;;;;;;;20.85;85.04;98910.06;348119;28;1317;-82
2023/06/12 00:10:27;;;;;;;368.43;236.53;;;;;;;20.85;84.83;98910.06;350047;28;1337;-82
2023/06/12 00:10:39;;;;;;;372.23;237.95;;;;;;;20.87;84.66;98916.06;345922;28;1332;-81
2023/06/12 00:10:49;;;;;;;371.40;239.68;;;;;;;20.84;84.51;98911.03;346016;28;1409;-81
2023/06/12 00:11:07;;;;;;;371.60;243.57;;;;;;;20.86;84.68;98908.25;343483;28;1360;-81
2023/06/12 00:11:17;;;;;;;369.52;236.75;;;;;;;20.82;84.83;98910.34;346810;28;1230;-82
2023/06/12 00:11:27;;;;;;;363.98;228.73;;;;;;;20.85;84.79;98914.53;346406;28;1308;-81
2023/06/12 00:11:40;;;;;;;361.70;229.90;;;;;;;20.83;84.91;98912.03;341978;28;1074;-81
2023/06/12 00:11:50;;;;;;;361.02;230.82;;;;;;;20.83;85.27;98913.84;340607;28;1414;-83
2023/06/12 00:12:01;;;;;;;363.23;236.57;;;;;;;20.83;84.77;98912.03;342527;28;1208;-82
2023/06/12 00:12:11;;;;;;;366.50;236.57;;;;;;;20.82;84.81;98915.66;340338;28;2876;-84
2023/06/12 00:12:22;;;;;;;366.33;236.73;;;;;;;20.81;85.19;98911.34;340323;28;3007;-82
2023/06/12 00:12:32;;;;;;;368.08;236.90;;;;;;;20.80;85.08;98912.31;339288;29;1353;-82
2023/06/12 00:12:42;;;;;;;371.97;242.20;;;;;;;20.81;85.16;98914.00;339769;29;1195;-81
2023/06/12 00:12:53;;;;;;;373.33;241.90;;;;;;;20.81;84.89;98913.16;338381;29;1214;-81
2023/06/12 00:13:03;;;;;;;371.85;238.10;;;;;;;20.80;84.90;98909.66;339608;29;755;-83
2023/06/12 00:13:14;;;;;;;369.93;233.13;;;;;;;20.78;85.03;98909.00;342379;28;1003;-82
2023/06/12 00:13:24;;;;;;;370.38;234.48;;;;;;;20.81;85.12;98914.00;343455;28;1184;-81
2023/06/12 00:13:40;;;;;;;369.40;237.37;;;;;;;20.79;84.95;98910.66;340619;29;1678;-81
2023/06/12 00:13:51;;;;;;;364.77;237.63;;;;;;;20.81;84.91;98910.50;339444;28;1415;-83
2023/06/12 00:14:01;;;;;;;365.60;239.07;;;;;;;20.80;85.01;98907.00;336520;29;1513;-82
2023/06/12 00:14:12;;;;;;;365.57;237.53;;;;;;;20.79;85.23;98909.84;336830;29;2830;-82
2023/06/12 00:14:22;;;;;;;368.00;239.25;;;;;;;20.79;85.36;98910.66;337082;29;1373;-83
2023/06/12 00:14:33;;;;;;;369.87;240.10;;;;;;;20.80;84.96;98916.78;339629;28;1426;-81
2023/06/12 00:14:43;;;;;;;370.58;241.07;;;;;;;20.79;85.09;98908.00;339429;29;1408;-81
2023/06/12 00:14:53;;;;;;;370.07;239.93;;;;;;;20.81;85.47;98908.66;339421;29;1331;-81
2023/06/12 00:15:04;;;;;;;368.92;238.93;;;;;;;20.82;85.28;98913.00;338092;29;1212;-81
2023/06/12 00:15:15;;;;;;;367.02;239.23;;;;;;;20.80;85.17;98911.47;336834;29;1194;-81
2023/06/12 00:15:25;;;;;;;369.90;241.13;;;;;;;20.81;84.96;98919.31;335226;29;1247;-82
2023/06/12 00:15:36;;;;;;;372.40;239.67;;;;;;;20.81;85.10;98908.66;334050;29;1322;-82
2023/06/12 00:15:46;;;;;;;373.83;237.90;;;;;;;20.80;85.24;98916.78;333459;29;1580;-82
2023/06/12 00:15:57;;;;;;;370.77;238.73;;;;;;;20.78;85.45;98906.34;332844;29;1965;-82
2023/06/12 00:16:07;;;;;;;374.43;241.23;;;;;;;20.79;85.21;98910.66;331891;29;732;-82
2023/06/12 00:16:18;;;;;;;377.65;243.02;;;;;;;20.78;84.99;98911.66;334112;29;1841;-82
2023/06/12 00:16:28;;;;;;;382.33;245.43;;;;;;;20.78;85.13;98908.16;333889;29;1704;-82
2023/06/12 00:16:39;;;;;;;376.92;245.73;;;;;;;20.78;85.13;98903.66;332151;29;1200;-82
2023/06/12 00:16:49;;;;;;;375.50;245.93;;;;;;;20.78;85.01;98909.00;326768;30;1975;-82
2023/06/12 00:17:00;;;;;;;372.13;242.30;;;;;;;20.79;85.35;98905.34;324719;30;1796;-82
2023/06/12 00:17:10;;;;;;;373.30;238.67;;;;;;;20.79;85.07;98909.84;326284;30;1184;-82
2023/06/12 00:17:21;;;;;;;370.45;236.43;;;;;;;20.79;85.63;98910.66;330765;29;978;-82
2023/06/12 00:17:33;;;;;;;368.23;234.97;;;;;;;20.78;85.40;98909.00;326378;30;1419;-82
2023/06/12 00:17:44;;;;;;;366.00;237.32;;;;;;;20.79;85.36;98908.00;323677;30;1591;-82
2023/06/12 00:17:54;;;;;;;367.10;239.20;;;;;;;20.80;85.27;98912.31;325630;30;1250;-82
2023/06/12 00:18:05;;;;;;;370.90;243.35;;;;;;;20.77;85.40;98903.81;323668;30;1986;-82
2023/06/12 00:18:15;;;;;;;376.40;245.60;;;;;;;20.78;85.18;98905.50;322796;30;3122;-82
2023/06/12 00:18:26;;;;;;;377.10;240.80;;;;;;;20.77;85.09;98903.81;318421;30;1193;-82
2023/06/12 00:18:38;;;;;;;378.77;240.13;;;;;;;20.76;85.26;98900.31;315588;31;2157;-82
2023/06/12 00:18:49;;;;;;;372.67;235.70;;;;;;;20.76;85.25;98905.63;313800;31;2511;-82
2023/06/12 00:19:00;;;;;;;366.45;234.75;;;;;;;20.77;85.45;98907.31;313089;31;2246;-82
2023/06/12 00:19:11;;;;;;;363.53;233.77;;;;;;;20.76;85.56;98905.63;313712;31;1221;-82
2023/06/12 00:19:21;;;;;;;367.83;235.55;;;;;;;20.76;85.71;98910.97;306482;32;1433;-82
2023/06/12 00:19:33;;;;;;;371.33;239.40;;;;;;;20.75;85.63;98914.59;308415;31;1488;-82
2023/06/12 00:19:43;;;;;;;372.20;241.20;;;;;;;20.77;85.82;98909.13;311127;31;1833;-82
2023/06/12 00:19:53;;;;;;;372.70;242.05;;;;;;;20.76;85.74;98905.63;308134;31;1234;-82
2023/06/12 00:20:05;;;;;;;376.93;244.20;;;;;;;20.76;85.67;98908.28;307027;31;2411;-82
2023/06/12 00:20:15;;;;;;;377.48;247.75;;;;;;;20.76;85.63;98912.78;306391;31;3042;-82
2023/06/12 00:20:27;;;;;;;377.10;247.57;;;;;;;20.73;85.54;98911.25;303124;32;1340;-83
2023/06/12 00:20:37;;;;;;;375.20;241.70;;;;;;;20.75;85.39;98909.28;301032;32;1010;-82
2023/06/12 00:20:48;;;;;;;374.67;238.73;;;;;;;20.75;85.59;98914.59;298547;32;3919;-82
2023/06/12 00:20:58;;;;;;;375.00;236.35;;;;;;;20.73;85.93;98913.91;294645;33;3534;-82
2023/06/12 00:21:09;;;;;;;378.10;238.57;;;;;;;20.72;85.95;98904.25;290172;34;1354;-82
2023/06/12 00:21:21;;;;;;;380.23;240.15;;;;;;;20.72;85.90;98906.91;292146;33;2681;-82
2023/06/12 00:21:32;;;;;;;375.17;237.80;;;;;;;20.72;85.82;98914.88;293360;33;2332;-82
2023/06/12 00:21:42;;;;;;;374.83;238.70;;;;;;;20.70;85.76;98906.22;291755;33;2784;-82
2023/06/12 00:21:53;;;;;;;376.60;242.37;;;;;;;20.73;86.21;98911.25;290527;34;1237;-82
2023/06/12 00:22:03;;;;;;;376.88;243.88;;;;;;;20.72;85.83;98914.88;287967;34;2772;-82
2023/06/12 00:22:14;;;;;;;379.20;245.77;;;;;;;20.71;85.98;98913.22;287310;33;3335;-82
2023/06/12 00:22:24;;;;;;;379.40;244.63;;;;;;;20.71;86.27;98910.53;290163;34;1177;-82
2023/06/12 00:22:40;;;;;;;379.73;245.57;;;;;;;20.70;85.90;98911.53;289642;34;4912;-82
2023/06/12 00:22:50;;;;;;;371.52;241.98;;;;;;;20.70;85.84;98916.84;288909;34;5490;-82
2023/06/12 00:23:01;;;;;;;371.13;243.13;;;;;;;20.70;85.87;98911.53;285993;34;5374;-82
2023/06/12 00:23:11;;;;;;;371.85;244.48;;;;;;;20.71;86.18;98907.03;285482;34;1078;-82
2023/06/12 00:23:22;;;;;;;375.85;246.63;;;;;;;20.71;86.02;98913.22;279160;35;827;-82
2023/06/12 00:23:32;;;;;;;380.20;249.07;;;;;;;20.72;85.82;98912.22;280668;34;4048;-82
2023/06/12 00:23:42;;;;;;;386.10;255.70;;;;;;;20.70;85.81;98911.53;277446;35;3284;-82
2023/06/12 00:23:53;;;;;;;384.92;254.07;;;;;;;20.73;85.78;98911.25;279736;35;1299;-82
2023/06/12 00:24:08;;;;;;;380.23;251.73;;;;;;;20.73;85.90;98911.25;276643;35;3422;-82
2023/06/12 00:24:19;;;;;;;368.15;238.50;;;;;;;20.72;86.01;98914.03;274373;35;4053;-82
2023/06/12 00:24:29;;;;;;;368.65;239.73;;;;;;;20.70;86.32;98911.53;270948;35;5178;-82
2023/06/12 00:24:39;;;;;;;370.10;241.25;;;;;;;20.71;85.92;98910.53;271740;36;1287;-82
2023/06/12 00:24:50;;;;;;;374.90;243.07;;;;;;;20.71;85.73;98913.22;269392;36;7331;-82
2023/06/12 00:25:00;;;;;;;372.30;242.07;;;;;;;20.72;85.83;98912.22;266267;36;7694;-82
2023/06/12 00:25:12;;;;;;;372.40;242.55;;;;;;;20.69;86.00;98901.03;265931;37;1341;-81
2023/06/12 00:25:22;;;;;;;369.17;242.18;;;;;;;20.71;86.26;98917.69;267221;37;1024;-82
2023/06/12 00:25:33;;;;;;;367.85;240.20;;;;;;;20.69;85.79;98915.16;265470;36;7715;-82
2023/06/12 00:25:43;;;;;;;371.00;242.63;;;;;;;20.68;85.83;98908.16;262802;37;4931;-82
2023/06/12 00:25:54;;;;;;;372.58;242.80;;;;;;;20.70;86.27;98910.69;261197;37;1022;-82
2023/06/12 00:26:04;;;;;;;374.47;245.30;;;;;;;20.71;86.03;98912.38;256271;37;5598;-82
2023/06/12 00:26:15;;;;;;;373.17;244.45;;;;;;;20.72;85.82;98912.22;253605;38;5452;-82
2023/06/12 00:26:26;;;;;;;372.47;242.27;;;;;;;20.71;86.17;98915.03;254839;38;1397;-82
2023/06/12 00:26:36;;;;;;;371.30;241.98;;;;;;;20.71;86.13;98913.22;253379;38;6435;-82
2023/06/12 00:28:13;;;;;;;357.52;224.20;;;;;;;20.70;85.72;98914.19;2492963;27;20481;-81
2023/06/12 00:28:24;;;;;;;366.67;235.57;;;;;;;20.70;86.18;98910.69;352945;28;1256;-81
2023/06/12 00:28:35;;;;;;;369.02;237.23;;;;;;;20.70;85.96;98906.22;350233;28;1231;-80
2023/06/12 00:28:46;;;;;;;370.25;240.25;;;;;;;20.70;86.22;98906.22;346314;28;1263;-81
2023/06/12 00:28:56;;;;;;;371.23;242.37;;;;;;;20.69;85.94;98909.84;346966;28;1335;-80
2023/06/12 00:29:06;;;;;;;371.80;242.98;;;;;;;20.67;86.32;98911.81;348776;28;1355;-80
2023/06/12 00:29:17;;;;;;;375.43;244.80;;;;;;;20.68;86.18;98918.81;350439;28;831;-80
2023/06/12 00:29:28;;;;;;;373.10;239.13;;;;;;;20.69;86.00;98914.34;348703;28;1251;-80
2023/06/12 00:29:38;;;;;;;373.20;238.60;;;;;;;20.70;86.02;98914.19;347259;28;1299;-81
2023/06/12 00:29:49;;;;;;;372.97;236.80;;;;;;;20.70;85.82;98916.84;349055;28;1306;-80
2023/06/12 00:29:59;;;;;;;375.17;241.40;;;;;;;20.69;86.27;98915.16;348847;28;1455;-81
2023/06/12 00:30:10;;;;;;;371.58;239.50;;;;;;;20.68;86.09;98917.97;348367;28;1099;-80
2023/06/12 00:30:20;;;;;;;370.02;236.40;;;;;;;20.68;86.04;98913.50;347295;28;1095;-82
2023/06/12 00:30:31;;;;;;;370.10;236.30;;;;;;;20.68;86.57;98918.81;347446;28;1308;-81
2023/06/12 00:30:41;;;;;;;368.63;235.13;;;;;;;20.67;86.27;98919.78;346535;28;1354;-80
2023/06/12 00:30:52;;;;;;;364.50;233.47;;;;;;;20.68;86.56;98921.47;347519;28;1212;-80
2023/06/12 00:31:02;;;;;;;366.38;235.50;;;;;;;20.65;86.24;98916.44;347862;28;1282;-80
2023/06/12 00:31:13;;;;;;;366.77;238.10;;;;;;;20.66;86.33;98926.09;348910;28;1259;-80
2023/06/12 00:31:23;;;;;;;368.38;239.43;;;;;;;20.64;86.74;98917.41;347334;28;1220;-80
2023/06/12 00:31:34;;;;;;;366.63;236.33;;;;;;;20.66;86.13;98917.28;346149;28;1085;-80
2023/06/12 00:31:45;;;;;;;365.40;234.55;;;;;;;20.67;86.53;98922.44;348871;28;1004;-80
2023/06/12 00:31:55;;;;;;;368.37;232.73;;;;;;;20.66;86.30;98918.13;347399;28;1386;-80
2023/06/12 00:32:06;;;;;;;373.87;237.90;;;;;;;20.66;86.92;98917.28;351113;28;1199;-80
2023/06/12 00:32:16;;;;;;;376.02;240.48;;;;;;;20.66;86.52;98918.13;352614;28;1207;-80
2023/06/12 00:32:27;;;;;;;375.98;243.18;;;;;;;20.67;86.19;98921.63;348041;28;1016;-80
2023/06/12 00:32:37;;;;;;;374.93;241.00;;;;;;;20.67;86.67;98922.44;345750;28;1117;-80
2023/06/12 00:32:47;;;;;;;374.23;240.50;;;;;;;20.65;86.43;98921.75;347491;28;1219;-80
2023/06/12 00:32:58;;;;;;;370.83;238.13;;;;;;;20.64;86.19;98921.91;346057;28;1237;-80
2023/06/12 00:33:08;;;;;;;371.03;237.37;;;;;;;20.64;86.59;98917.41;347161;28;1273;-80
2023/06/12 00:33:19;;;;;;;369.75;236.43;;;;;;;20.65;86.64;98924.41;347461;28;1465;-82
2023/06/12 00:33:30;;;;;;;373.00;232.23;;;;;;;20.61;86.66;98923.03;344730;28;1295;-81
2023/06/12 00:33:41;;;;;;;370.85;229.88;;;;;;;20.60;86.65;98921.34;341751;28;1408;-81
2023/06/12 00:33:51;;;;;;;367.33;226.13;;;;;;;20.62;86.23;98930.00;343788;28;1263;-80
2023/06/12 00:34:01;;;;;;;366.90;230.27;;;;;;;20.60;85.96;98918.69;346584;28;1303;-80
2023/06/12 00:34:12;;;;;;;364.65;229.93;;;;;;;20.63;86.33;98926.38;345970;28;1271;-80
2023/06/12 00:34:22;;;;;;;365.50;234.23;;;;;;;20.63;86.34;98928.19;346672;28;930;-80
2023/06/12 00:34:33;;;;;;;365.17;237.05;;;;;;;20.63;86.62;98931.69;344426;28;1233;-80
2023/06/12 00:34:43;;;;;;;365.87;236.67;;;;;;;20.64;86.37;98928.06;342195;28;789;-80
2023/06/12 00:34:53;;;;;;;365.08;234.38;;;;;;;20.67;86.43;98933.09;343993;28;1198;-80
2023/06/12 00:35:04;;;;;;;365.13;233.37;;;;;;;20.66;86.36;98926.09;343223;28;1148;-80
2023/06/12 00:35:18;;;;;;;361.83;232.95;;;;;;;20.67;86.27;98926.94;343728;28;1375;-80
2023/06/12 00:35:28;;;;;;;357.38;227.02;;;;;;;20.66;86.15;98926.09;341861;28;919;-80
2023/06/12 00:35:39;;;;;;;357.33;227.60;;;;;;;20.68;86.25;98933.94;341243;28;1195;-80
2023/06/12 00:35:50;;;;;;;359.43;230.87;;;;;;;20.68;86.15;98937.44;342428;28;1288;-80
2023/06/12 00:36:01;;;;;;;363.48;235.38;;;;;;;20.69;86.33;98932.94;344770;28;3263;-80
2023/06/12 00:36:12;;;;;;;365.10;237.07;;;;;;;20.69;86.31;98925.81;338302;28;2937;-80
2023/06/12 00:36:23;;;;;;;365.02;236.60;;;;;;;20.70;85.46;98932.81;338631;29;2973;-80
2023/06/12 00:36:34;;;;;;;364.47;237.27;;;;;;;20.70;85.79;98932.81;336532;28;1315;-81
2023/06/12 00:36:45;;;;;;;366.15;239.20;;;;;;;20.71;85.70;98934.47;341700;28;3229;-80
2023/06/12 00:36:56;;;;;;;366.95;240.05;;;;;;;20.72;85.91;98936.16;341504;28;1237;-80
2023/06/12 00:37:07;;;;;;;363.35;235.63;;;;;;;20.72;85.53;98936.16;342804;28;1334;-81
2023/06/12 00:37:18;;;;;;;362.85;233.57;;;;;;;20.74;85.80;98928.88;339440;28;1359;-81
2023/06/12 00:37:29;;;;;;;363.00;234.03;;;;;;;20.74;85.60;98926.22;342023;28;1480;-80
2023/06/12 00:37:41;;;;;;;363.63;234.98;;;;;;;20.75;85.43;98929.72;338925;29;1349;-80
2023/06/12 00:37:52;;;;;;;362.08;231.82;;;;;;;20.74;85.76;98928.88;336825;29;1103;-80
2023/06/12 00:38:02;;;;;;;366.55;232.80;;;;;;;20.72;85.68;98930.84;335675;29;2937;-80
2023/06/12 00:38:13;;;;;;;368.73;233.70;;;;;;;20.74;85.86;98934.19;338434;29;1234;-81
2023/06/12 00:38:23;;;;;;;374.33;238.45;;;;;;;20.74;85.45;98939.50;336330;29;2000;-80
2023/06/12 00:38:34;;;;;;;374.37;238.60;;;;;;;20.75;85.74;98935.03;332954;29;1857;-80
2023/06/12 00:38:46;;;;;;;373.75;235.20;;;;;;;20.73;85.72;98937.84;334265;29;1139;-79
2023/06/12 00:38:56;;;;;;;369.90;231.95;;;;;;;20.72;85.84;98935.31;332501;29;1615;-80
2023/06/12 00:39:06;;;;;;;369.80;234.47;;;;;;;20.70;85.92;98927.47;329569;29;1998;-80
2023/06/12 00:39:17;;;;;;;371.63;236.13;;;;;;;20.73;86.04;98935.19;325570;30;1487;-80
2023/06/12 00:39:27;;;;;;;370.60;234.43;;;;;;;20.69;85.90;98925.81;324082;30;1343;-80
2023/06/12 00:39:38;;;;;;;365.27;230.15;;;;;;;20.72;85.90;98938.81;323591;30;1280;-81
2023/06/12 00:39:48;;;;;;;364.00;228.70;;;;;;;20.72;86.02;98936.16;322979;30;1302;-80
2023/06/12 00:39:59;;;;;;;365.87;231.93;;;;;;;20.69;85.68;98932.94;323270;30;844;-79
2023/06/12 00:40:10;;;;;;;371.30;232.27;;;;;;;20.69;85.60;98936.44;322339;30;1542;-79
2023/06/12 00:40:20;;;;;;;370.48;233.00;;;;;;;20.68;85.77;98929.44;317836;30;2199;-79
2023/06/12 00:40:31;;;;;;;370.05;230.98;;;;;;;20.69;85.73;98931.13;316516;31;1103;-81
2023/06/12 00:40:41;;;;;;;375.23;237.03;;;;;;;20.68;85.90;98932.09;320760;30;2853;-81
2023/06/12 00:40:51;;;;;;;377.88;237.88;;;;;;;20.67;85.90;98922.44;318383;30;2248;-79
2023/06/12 00:41:02;;;;;;;381.17;236.80;;;;;;;20.70;85.94;98927.47;313947;31;1250;-79
2023/06/12 00:41:12;;;;;;;373.00;232.70;;;;;;;20.67;85.91;98930.44;315073;31;1497;-80
2023/06/12 00:41:24;;;;;;;373.27;233.53;;;;;;;20.69;85.71;98936.44;315276;31;2481;-80
2023/06/12 00:41:34;;;;;;;372.92;238.32;;;;;;;20.68;85.81;98932.09;311671;31;1894;-80
2023/06/12 00:41:44;;;;;;;371.30;235.75;;;;;;;20.68;85.72;98929.44;310612;31;1187;-80
2023/06/12 00:41:55;;;;;;;368.53;233.27;;;;;;;20.67;86.01;98925.09;313601;31;1205;-80
2023/06/12 00:42:06;;;;;;;366.47;230.27;;;;;;;20.68;85.88;98929.44;309978;31;1769;-80
2023/06/12 00:42:17;;;;;;;369.27;231.05;;;;;;;20.66;86.20;98920.78;306445;32;915;-80
2023/06/12 00:42:32;;;;;;;370.17;232.77;;;;;;;20.65;86.18;98927.06;305762;32;2513;-80
2023/06/12 00:42:45;;;;;;;367.60;237.18;;;;;;;20.67;85.90;98926.94;305699;32;4209;-80
2023/06/12 00:42:55;;;;;;;364.15;235.27;;;;;;;20.68;85.56;98937.44;302805;32;3397;-80
2023/06/12 00:43:06;;;;;;;363.90;233.60;;;;;;;20.68;86.07;98929.44;300702;32;2943;-80
2023/06/12 00:43:17;;;;;;;367.02;237.68;;;;;;;20.68;85.88;98932.09;298978;33;1270;-80
2023/06/12 00:43:27;;;;;;;367.93;235.80;;;;;;;20.68;85.96;98924.13;299051;32;2960;-80
2023/06/12 00:43:38;;;;;;;364.17;233.07;;;;;;;20.68;86.08;98934.75;298368;32;3041;-80
2023/06/12 00:43:49;;;;;;;362.63;230.75;;;;;;;20.68;86.18;98934.75;295666;33;2418;-80
2023/06/12 00:43:59;;;;;;;360.15;229.82;;;;;;;20.68;85.99;98934.75;297763;33;1291;-80
2023/06/12 00:44:11;;;;;;;363.30;233.90;;;;;;;20.70;85.62;98932.81;296865;33;2166;-80
2023/06/12 00:44:21;;;;;;;362.90;233.60;;;;;;;20.70;85.73;98934.63;295205;33;3133;-80
2023/06/12 00:44:32;;;;;;;365.20;236.10;;;;;;;20.71;85.65;98928.31;295646;33;1317;-80
2023/06/12 00:44:42;;;;;;;366.65;236.85;;;;;;;20.70;86.13;98927.47;291392;33;3541;-81
2023/06/12 00:44:52;;;;;;;370.50;239.17;;;;;;;20.70;85.69;98924.00;291595;33;4833;-80
2023/06/12 00:45:03;;;;;;;371.10;238.17;;;;;;;20.70;85.92;98926.66;291935;33;5056;-80
2023/06/12 00:45:21;;;;;;;370.65;238.70;;;;;;;20.68;85.89;98929.44;290320;33;1357;-79
2023/06/12 00:45:31;;;;;;;367.70;237.50;;;;;;;20.69;85.96;98936.44;285506;34;1346;-79
2023/06/12 00:45:42;;;;;;;367.17;240.70;;;;;;;20.69;85.88;98935.59;288062;34;3900;-79
2023/06/12 00:45:52;;;;;;;367.02;243.30;;;;;;;20.69;85.78;98930.28;285664;34;4539;-80
2023/06/12 00:46:03;;;;;;;368.50;243.97;;;;;;;20.67;86.30;98935.75;283793;34;3462;-80
2023/06/12 00:46:13;;;;;;;372.08;242.27;;;;;;;20.67;86.11;98933.09;282748;35;964;-80
2023/06/12 00:46:24;;;;;;;368.45;237.00;;;;;;;20.65;85.72;98927.06;280840;34;3409;-80
2023/06/12 00:46:34;;;;;;;370.23;239.60;;;;;;;20.65;86.28;98932.38;280480;34;3608;-79
2023/06/12 00:46:45;;;;;;;365.47;237.77;;;;;;;20.64;86.04;98938.69;280989;35;1449;-79
2023/06/12 00:46:55;;;;;;;368.45;241.43;;;;;;;20.63;86.03;98931.69;277387;35;5110;-79
2023/06/12 00:47:05;;;;;;;365.93;239.50;;;;;;;20.63;86.11;98933.50;275590;35;7198;-79
2023/06/12 00:47:16;;;;;;;368.83;239.25;;;;;;;20.61;86.04;98931.00;279225;35;871;-81
2023/06/12 00:47:26;;;;;;;369.03;237.67;;;;;;;20.60;86.08;98929.31;277236;35;6914;-80
2023/06/12 00:47:37;;;;;;;370.15;238.98;;;;;;;20.59;86.35;98936.47;275593;35;6662;-80
2023/06/12 00:47:53;;;;;;;371.97;243.07;;;;;;;20.59;86.30;98931.13;275404;35;3162;-80
2023/06/12 00:48:05;;;;;;;369.33;241.90;;;;;;;20.62;86.31;98935.34;271192;35;6053;-80
2023/06/12 00:48:15;;;;;;;366.23;237.70;;;;;;;20.62;86.33;98934.50;271537;36;1398;-80
2023/06/12 00:48:26;;;;;;;368.23;241.47;;;;;;;20.61;86.28;98927.50;269624;36;4495;-80
2023/06/12 00:48:38;;;;;;;369.00;242.37;;;;;;;20.61;86.40;98936.31;267171;36;5535;-80
2023/06/12 00:48:48;;;;;;;368.77;239.00;;;;;;;20.61;86.20;98933.66;263476;36;6018;-80
2023/06/12 00:49:01;;;;;;;365.58;236.10;;;;;;;20.62;86.10;98930.00;263891;37;1416;-80
2023/06/12 00:49:11;;;;;;;368.55;240.90;;;;;;;20.64;85.83;98927.22;263831;37;8085;-81
2023/06/12 00:49:22;;;;;;;371.80;245.10;;;;;;;20.63;86.44;98937.00;261288;37;10460;-80
2023/06/12 00:51:17;;;;;;;349.01;216.34;;;;;;;20.58;86.19;98934.78;2497928;27;20595;-80
2023/06/12 00:51:28;;;;;;;355.70;228.80;;;;;;;20.58;86.46;98929.47;352912;28;1341;-80
2023/06/12 00:51:39;;;;;;;358.98;231.88;;;;;;;20.57;86.57;98932.25;348626;28;1330;-80
2023/06/12 00:51:50;;;;;;;362.40;235.00;;;;;;;20.58;86.18;98931.28;350286;28;1263;-80
2023/06/12 00:52:01;;;;;;;363.70;236.68;;;;;;;20.54;86.26;98930.72;347160;28;1200;-81
2023/06/12 00:52:12;;;;;;;362.90;234.57;;;;;;;20.56;86.31;98935.91;346877;28;1513;-81
2023/06/12 00:52:24;;;;;;;364.23;235.10;;;;;;;20.56;86.24;98935.91;347575;28;809;-80
2023/06/12 00:52:35;;;;;;;364.40;233.80;;;;;;;20.56;86.68;98935.91;348239;28;1381;-80
2023/06/12 00:52:47;;;;;;;366.30;235.83;;;;;;;20.55;86.54;98929.75;347532;28;1151;-81
2023/06/12 00:52:59;;;;;;;367.05;233.20;;;;;;;20.56;86.52;98933.25;346009;28;1455;-80
2023/06/12 00:53:09;;;;;;;366.75;232.95;;;;;;;20.55;86.66;98928.91;349168;28;1374;-79
2023/06/12 00:53:20;;;;;;;365.35;234.25;;;;;;;20.55;86.65;98931.56;350158;28;1392;-79
2023/06/12 00:53:30;;;;;;;365.07;233.63;;;;;;;20.53;86.28;98929.06;349042;28;1218;-79
2023/06/12 00:53:40;;;;;;;365.50;235.45;;;;;;;20.53;86.83;98925.56;349806;28;951;-79
2023/06/12 00:53:53;;;;;;;365.57;234.37;;;;;;;20.53;86.55;98926.38;347682;28;809;-79
2023/06/12 00:54:03;;;;;;;364.45;235.00;;;;;;;20.55;86.83;98934.22;346183;28;810;-79
2023/06/12 00:54:14;;;;;;;362.87;233.70;;;;;;;20.54;86.88;98930.72;348014;28;1197;-79
2023/06/12 00:54:25;;;;;;;364.23;235.20;;;;;;;20.56;86.48;98930.59;348958;28;1263;-79
2023/06/12 00:54:36;;;;;;;364.48;236.27;;;;;;;20.54;86.72;98928.06;352908;27;1301;-79
2023/06/12 00:54:47;;;;;;;366.37;238.43;;;;;;;20.56;86.47;98935.91;350242;28;1195;-79